createdAt,value
2017-06-12T00:00:29.311Z,942.4
2017-06-12T00:01:36.997Z,942.4
2017-06-12T00:02:45.102Z,942.4
2017-06-12T00:03:53.223Z,942.4
2017-06-12T00:05:01.532Z,942.3
2017-06-12T00:06:09.609Z,942.4
2017-06-12T00:07:17.437Z,942.3
2017-06-12T00:08:25.545Z,942.3
2017-06-12T00:09:33.622Z,942.3
2017-06-12T00:10:41.683Z,942.3
2017-06-12T00:11:49.880Z,942.3
2017-06-12T00:12:57.855Z,942.3
2017-06-12T00:14:05.980Z,942.3
2017-06-12T00:15:14.074Z,942.3
2017-06-12T00:16:22.130Z,942.3
2017-06-12T00:17:30.474Z,942.3
2017-06-12T00:18:38.341Z,942.3
2017-06-12T00:19:46.411Z,942.2
2017-06-12T00:20:54.746Z,942.2
2017-06-12T00:22:02.557Z,942.3
2017-06-12T00:23:10.941Z,942.3
2017-06-12T00:24:18.804Z,942.2
2017-06-12T00:25:26.829Z,942.3
2017-06-12T00:26:34.939Z,942.3
2017-06-12T00:27:43.032Z,942.3
2017-06-12T00:28:51.371Z,942.3
2017-06-12T00:29:59.223Z,942.3
2017-06-12T00:31:07.303Z,942.3
2017-06-12T00:32:15.358Z,942.3
2017-06-12T00:33:23.383Z,942.3
2017-06-12T00:34:31.770Z,942.4
2017-06-12T00:35:39.561Z,942.4
2017-06-12T00:36:47.701Z,942.4
2017-06-12T00:37:55.735Z,942.4
2017-06-12T00:39:03.823Z,942.4
2017-06-12T00:40:12.096Z,942.4
2017-06-12T00:41:20.059Z,942.3
2017-06-12T00:42:28.086Z,942.3
2017-06-12T00:43:36.172Z,942.4
2017-06-12T00:44:44.260Z,942.4
2017-06-12T00:45:52.470Z,942.4
2017-06-12T00:47:00.437Z,942.4
2017-06-12T00:48:08.523Z,942.4
2017-06-12T00:49:16.612Z,942.4
2017-06-12T00:50:24.708Z,942.4
2017-06-12T00:51:33.041Z,942.3
2017-06-12T00:52:40.939Z,942.4
2017-06-12T00:53:48.969Z,942.4
2017-06-12T00:54:57.056Z,942.4
2017-06-12T00:56:05.144Z,942.3
2017-06-12T00:57:13.352Z,942.4
2017-06-12T00:58:21.402Z,942.3
2017-06-12T00:59:29.406Z,942.4
2017-06-12T01:00:37.495Z,942.3
2017-06-12T01:01:45.581Z,942.3
2017-06-12T01:02:53.726Z,942.3
2017-06-12T01:04:01.756Z,942.3
2017-06-12T01:05:09.844Z,942.3
2017-06-12T01:06:17.931Z,942.3
2017-06-12T01:07:26.021Z,942.3
2017-06-12T01:08:34.290Z,942.3
2017-06-12T01:09:42.195Z,942.3
2017-06-12T01:10:50.283Z,942.3
2017-06-12T01:11:58.370Z,942.2
2017-06-12T01:13:06.460Z,942.3
2017-06-12T01:14:14.694Z,942.3
2017-06-12T01:15:22.671Z,942.3
2017-06-12T01:16:30.722Z,942.3
2017-06-12T01:17:38.809Z,942.3
2017-06-12T01:18:46.899Z,942.3
2017-06-12T01:19:55.104Z,942.3
2017-06-12T01:21:03.072Z,942.3
2017-06-12T01:22:11.157Z,942.3
2017-06-12T01:23:19.245Z,942.4
2017-06-12T01:24:27.390Z,942.4
2017-06-12T01:25:35.632Z,942.4
2017-06-12T01:26:43.509Z,942.4
2017-06-12T01:27:51.596Z,942.4
2017-06-12T01:28:59.684Z,942.4
2017-06-12T01:30:07.771Z,942.4
2017-06-12T01:31:15.917Z,942.3
2017-06-12T01:32:23.946Z,942.4
2017-06-12T01:33:32.041Z,942.4
2017-06-12T01:34:40.129Z,942.3
2017-06-12T01:35:48.242Z,942.3
2017-06-12T01:36:56.551Z,942.3
2017-06-12T01:38:04.392Z,942.3
2017-06-12T01:39:12.478Z,942.3
2017-06-12T01:40:20.684Z,942.3
2017-06-12T01:41:28.652Z,942.3
2017-06-12T01:42:36.827Z,942.3
2017-06-12T01:43:44.832Z,942.3
2017-06-12T01:44:52.917Z,942.3
2017-06-12T01:46:01.005Z,942.3
2017-06-12T01:47:09.102Z,942.4
2017-06-12T01:48:17.306Z,942.3
2017-06-12T01:49:25.278Z,942.3
2017-06-12T01:50:33.363Z,942.3
2017-06-12T01:51:41.449Z,942.3
2017-06-12T01:52:49.608Z,942.3
2017-06-12T01:53:57.817Z,942.3
2017-06-12T01:55:05.712Z,942.3
2017-06-12T01:56:13.854Z,942.3
2017-06-12T01:57:21.885Z,942.3
2017-06-12T01:58:29.974Z,942.3
2017-06-12T01:59:38.181Z,942.3
2017-06-12T02:00:46.150Z,942.3
2017-06-12T02:01:54.237Z,942.2
2017-06-12T02:03:02.326Z,942.3
2017-06-12T02:04:10.553Z,942.3
2017-06-12T02:05:18.621Z,942.3
2017-06-12T02:06:26.589Z,942.3
2017-06-12T02:07:34.674Z,942.3
2017-06-12T02:08:42.761Z,942.3
2017-06-12T02:09:50.872Z,942.3
2017-06-12T02:10:59.013Z,942.2
2017-06-12T02:12:07.151Z,942.3
2017-06-12T02:13:15.110Z,942.3
2017-06-12T02:14:23.392Z,942.3
2017-06-12T02:15:31.481Z,942.3
2017-06-12T02:16:39.494Z,942.3
2017-06-12T02:17:47.461Z,942.3
2017-06-12T02:18:55.547Z,942.3
2017-06-12T02:20:03.633Z,942.3
2017-06-12T02:21:11.848Z,942.4
2017-06-12T02:22:19.869Z,942.4
2017-06-12T02:23:27.898Z,942.4
2017-06-12T02:24:35.985Z,942.4
2017-06-12T02:25:44.075Z,942.4
2017-06-12T02:26:52.159Z,942.4
2017-06-12T02:28:00.375Z,942.4
2017-06-12T02:29:08.341Z,942.4
2017-06-12T02:30:16.434Z,942.4
2017-06-12T02:31:24.520Z,942.4
2017-06-12T02:32:32.605Z,942.4
2017-06-12T02:33:40.814Z,942.4
2017-06-12T02:34:48.785Z,942.4
2017-06-12T02:35:56.866Z,942.4
2017-06-12T02:37:04.954Z,942.4
2017-06-12T02:38:13.194Z,942.3
2017-06-12T02:39:21.186Z,942.4
2017-06-12T02:40:29.224Z,942.3
2017-06-12T02:41:37.311Z,942.4
2017-06-12T02:42:45.395Z,942.4
2017-06-12T02:43:53.644Z,942.4
2017-06-12T02:45:01.731Z,942.4
2017-06-12T02:46:09.659Z,942.4
2017-06-12T02:47:17.747Z,942.4
2017-06-12T02:48:25.834Z,942.4
2017-06-12T02:49:33.921Z,942.4
2017-06-12T02:50:42.063Z,942.4
2017-06-12T02:51:50.097Z,942.4
2017-06-12T02:52:58.182Z,942.4
2017-06-12T02:54:06.267Z,942.4
2017-06-12T02:55:14.497Z,942.4
2017-06-12T02:56:22.501Z,942.3
2017-06-12T02:57:30.532Z,942.4
2017-06-12T02:58:38.621Z,942.4
2017-06-12T02:59:46.827Z,942.4
2017-06-12T03:00:54.824Z,942.4
2017-06-12T03:02:03.026Z,942.4
2017-06-12T03:03:10.967Z,942.4
2017-06-12T03:04:19.051Z,942.4
2017-06-12T03:05:27.246Z,942.4
2017-06-12T03:06:35.227Z,942.4
2017-06-12T03:07:43.370Z,942.4
2017-06-12T03:08:51.401Z,942.4
2017-06-12T03:09:59.490Z,942.4
2017-06-12T03:11:07.577Z,942.4
2017-06-12T03:12:15.748Z,942.4
2017-06-12T03:13:23.870Z,942.5
2017-06-12T03:14:31.837Z,942.5
2017-06-12T03:15:39.981Z,942.5
2017-06-12T03:16:48.011Z,942.5
2017-06-12T03:17:56.097Z,942.5
2017-06-12T03:19:04.305Z,942.5
2017-06-12T03:20:12.273Z,942.5
2017-06-12T03:21:20.360Z,942.5
2017-06-12T03:22:28.604Z,942.5
2017-06-12T03:23:36.694Z,942.6
2017-06-12T03:24:44.739Z,942.6
2017-06-12T03:25:52.708Z,942.6
2017-06-12T03:27:00.795Z,942.6
2017-06-12T03:28:08.884Z,942.6
2017-06-12T03:29:17.000Z,942.6
2017-06-12T03:30:25.114Z,942.5
2017-06-12T03:31:33.265Z,942.5
2017-06-12T03:32:41.234Z,942.5
2017-06-12T03:33:49.325Z,942.5
2017-06-12T03:34:57.410Z,942.5
2017-06-12T03:36:05.621Z,942.5
2017-06-12T03:37:13.587Z,942.6
2017-06-12T03:38:21.674Z,942.6
2017-06-12T03:39:29.869Z,942.6
2017-06-12T03:40:37.968Z,942.6
2017-06-12T03:41:45.992Z,942.6
2017-06-12T03:42:54.021Z,942.6
2017-06-12T03:44:02.110Z,942.6
2017-06-12T03:45:10.198Z,942.6
2017-06-12T03:46:18.285Z,942.5
2017-06-12T03:47:26.491Z,942.5
2017-06-12T03:48:34.458Z,942.5
2017-06-12T03:49:42.547Z,942.5
2017-06-12T03:50:50.815Z,942.5
2017-06-12T03:51:58.721Z,942.5
2017-06-12T03:53:06.931Z,942.4
2017-06-12T03:54:14.893Z,942.4
2017-06-12T03:55:22.981Z,942.4
2017-06-12T03:56:31.178Z,942.4
2017-06-12T03:57:39.172Z,942.4
2017-06-12T03:58:47.298Z,942.4
2017-06-12T03:59:55.330Z,942.4
2017-06-12T04:01:03.416Z,942.4
2017-06-12T04:02:11.501Z,942.4
2017-06-12T04:03:19.714Z,942.4
2017-06-12T04:04:27.797Z,942.4
2017-06-12T04:05:35.763Z,942.4
2017-06-12T04:06:43.851Z,942.4
2017-06-12T04:07:52.229Z,942.4
2017-06-12T04:09:00.025Z,942.3
2017-06-12T04:10:08.233Z,942.4
2017-06-12T04:11:16.198Z,942.3
2017-06-12T04:12:24.284Z,942.3
2017-06-12T04:13:32.471Z,942.3
2017-06-12T04:14:40.559Z,942.2
2017-06-12T04:15:49.306Z,942.2
2017-06-12T04:16:56.631Z,942.2
2017-06-12T04:18:04.720Z,942.2
2017-06-12T04:19:13.056Z,942.2
2017-06-12T04:20:20.917Z,942.2
2017-06-12T04:21:31.262Z,942.2
2017-06-12T04:22:37.067Z,942.2
2017-06-12T04:23:45.152Z,942.2
2017-06-12T04:24:53.240Z,942.3
2017-06-12T04:26:01.710Z,942.2
2017-06-12T04:27:09.534Z,942.3
2017-06-12T04:28:17.501Z,942.3
2017-06-12T04:29:25.594Z,942.3
2017-06-12T04:30:34.065Z,942.3
2017-06-12T04:31:41.767Z,942.3
2017-06-12T04:32:49.904Z,942.4
2017-06-12T04:33:57.937Z,942.4
2017-06-12T04:35:06.142Z,942.4
2017-06-12T04:36:14.164Z,942.4
2017-06-12T04:37:22.197Z,942.4
2017-06-12T04:38:30.407Z,942.5
2017-06-12T04:39:38.372Z,942.5
2017-06-12T04:40:46.458Z,942.5
2017-06-12T04:41:54.698Z,942.5
2017-06-12T04:43:02.630Z,942.5
2017-06-12T04:44:10.840Z,942.5
2017-06-12T04:45:18.806Z,942.5
2017-06-12T04:46:26.892Z,942.6
2017-06-12T04:47:35.009Z,942.5
2017-06-12T04:48:43.092Z,942.6
2017-06-12T04:49:51.214Z,942.6
2017-06-12T04:50:59.366Z,942.6
2017-06-12T04:52:07.333Z,942.6
2017-06-12T04:53:15.420Z,942.6
2017-06-12T04:54:23.507Z,942.6
2017-06-12T04:55:31.714Z,942.6
2017-06-12T04:56:39.680Z,942.6
2017-06-12T04:57:47.770Z,942.6
2017-06-12T04:58:55.924Z,942.6
2017-06-12T05:00:03.943Z,942.6
2017-06-12T05:01:12.151Z,942.6
2017-06-12T05:02:20.118Z,942.6
2017-06-12T05:03:29.523Z,942.5
2017-06-12T05:04:37.256Z,942.6
2017-06-12T05:05:45.507Z,942.6
2017-06-12T05:06:55.201Z,942.6
2017-06-12T05:08:01.215Z,942.6
2017-06-12T05:09:09.417Z,942.6
2017-06-12T05:10:16.961Z,942.6
2017-06-12T05:11:25.115Z,942.6
2017-06-12T05:12:33.023Z,942.6
2017-06-12T05:13:40.995Z,942.6
2017-06-12T05:14:50.571Z,942.6
2017-06-12T05:15:58.939Z,942.6
2017-06-12T05:17:07.075Z,942.6
2017-06-12T05:18:16.297Z,942.6
2017-06-12T05:19:22.284Z,942.6
2017-06-12T05:20:31.217Z,942.6
2017-06-12T05:21:37.598Z,942.6
2017-06-12T05:22:45.867Z,942.6
2017-06-12T05:23:57.052Z,942.6
2017-06-12T05:25:01.861Z,942.6
2017-06-12T05:26:09.980Z,942.6
2017-06-12T05:27:19.826Z,942.6
2017-06-12T05:28:27.702Z,942.6
2017-06-12T05:29:35.846Z,942.6
2017-06-12T05:30:43.613Z,942.6
2017-06-12T05:31:51.921Z,942.5
2017-06-12T05:32:58.530Z,942.5
2017-06-12T05:34:06.570Z,942.5
2017-06-12T05:35:14.776Z,942.5
2017-06-12T05:36:22.829Z,942.5
2017-06-12T05:37:30.860Z,942.5
2017-06-12T05:38:39.039Z,942.5
2017-06-12T05:39:47.005Z,942.5
2017-06-12T05:40:55.213Z,942.5
2017-06-12T05:42:03.182Z,942.5
2017-06-12T05:43:11.267Z,942.5
2017-06-12T05:44:19.461Z,942.5
2017-06-12T05:45:27.448Z,942.6
2017-06-12T05:46:35.654Z,942.5
2017-06-12T05:47:43.622Z,942.6
2017-06-12T05:48:51.710Z,942.5
2017-06-12T05:49:59.800Z,942.5
2017-06-12T05:51:07.888Z,942.5
2017-06-12T05:52:16.093Z,942.5
2017-06-12T05:53:24.062Z,942.5
2017-06-12T05:54:32.337Z,942.5
2017-06-12T05:55:40.235Z,942.5
2017-06-12T05:56:48.324Z,942.5
2017-06-12T05:57:56.530Z,942.5
2017-06-12T05:59:04.498Z,942.5
2017-06-12T06:00:12.585Z,942.6
2017-06-12T06:01:20.744Z,942.6
2017-06-12T06:02:28.758Z,942.6
2017-06-12T06:03:36.967Z,942.6
2017-06-12T06:04:44.934Z,942.6
2017-06-12T06:05:53.020Z,942.6
2017-06-12T06:07:01.111Z,942.7
2017-06-12T06:08:09.197Z,942.7
2017-06-12T06:09:17.409Z,942.7
2017-06-12T06:10:25.497Z,942.7
2017-06-12T06:11:33.648Z,942.7
2017-06-12T06:12:41.549Z,942.6
2017-06-12T06:13:49.637Z,942.6
2017-06-12T06:14:57.844Z,942.6
2017-06-12T06:16:05.815Z,942.6
2017-06-12T06:17:13.899Z,942.6
2017-06-12T06:18:22.383Z,942.6
2017-06-12T06:19:30.193Z,942.6
2017-06-12T06:20:38.277Z,942.6
2017-06-12T06:21:46.246Z,942.7
2017-06-12T06:22:54.332Z,942.7
2017-06-12T06:24:02.419Z,942.7
2017-06-12T06:25:10.507Z,942.7
2017-06-12T06:26:18.715Z,942.7
2017-06-12T06:27:26.684Z,942.7
2017-06-12T06:28:34.930Z,942.7
2017-06-12T06:29:42.856Z,942.7
2017-06-12T06:30:51.134Z,942.7
2017-06-12T06:31:59.150Z,942.7
2017-06-12T06:33:07.119Z,942.8
2017-06-12T06:34:15.205Z,942.8
2017-06-12T06:35:23.293Z,942.7
2017-06-12T06:36:31.380Z,942.7
2017-06-12T06:37:39.590Z,942.7
2017-06-12T06:38:47.977Z,942.7
2017-06-12T06:39:55.759Z,942.8
2017-06-12T06:41:04.195Z,942.8
2017-06-12T06:42:11.994Z,942.8
2017-06-12T06:43:20.155Z,942.8
2017-06-12T06:44:27.993Z,942.8
2017-06-12T06:45:36.179Z,942.8
2017-06-12T06:46:44.175Z,942.9
2017-06-12T06:47:52.270Z,942.9
2017-06-12T06:49:00.484Z,942.9
2017-06-12T06:50:08.443Z,942.9
2017-06-12T06:51:16.531Z,942.8
2017-06-12T06:52:24.619Z,942.9
2017-06-12T06:53:32.706Z,942.9
2017-06-12T06:54:40.849Z,942.9
2017-06-12T06:55:48.880Z,942.9
2017-06-12T06:56:57.165Z,942.9
2017-06-12T06:58:05.181Z,942.9
2017-06-12T06:59:13.170Z,942.9
2017-06-12T07:00:21.356Z,942.9
2017-06-12T07:01:29.323Z,943.0
2017-06-12T07:02:37.493Z,942.9
2017-06-12T07:03:45.500Z,942.9
2017-06-12T07:04:53.585Z,943.0
2017-06-12T07:06:01.794Z,943.0
2017-06-12T07:07:09.760Z,943.0
2017-06-12T07:08:17.847Z,942.9
2017-06-12T07:09:25.935Z,943.0
2017-06-12T07:10:34.024Z,943.0
2017-06-12T07:11:42.240Z,942.9
2017-06-12T07:12:50.204Z,942.9
2017-06-12T07:13:58.494Z,942.9
2017-06-12T07:15:06.407Z,942.9
2017-06-12T07:16:14.495Z,942.9
2017-06-12T07:17:22.677Z,942.9
2017-06-12T07:18:30.650Z,942.9
2017-06-12T07:19:38.776Z,942.9
2017-06-12T07:20:46.819Z,942.9
2017-06-12T07:21:54.912Z,942.9
2017-06-12T07:23:03.411Z,942.9
2017-06-12T07:24:11.078Z,942.8
2017-06-12T07:25:19.175Z,942.8
2017-06-12T07:26:27.256Z,942.9
2017-06-12T07:27:35.342Z,942.9
2017-06-12T07:28:43.550Z,942.9
2017-06-12T07:29:51.638Z,942.9
2017-06-12T07:30:59.732Z,942.9
2017-06-12T07:32:07.690Z,942.9
2017-06-12T07:33:15.778Z,942.8
2017-06-12T07:34:23.985Z,942.9
2017-06-12T07:35:31.952Z,942.9
2017-06-12T07:36:40.040Z,942.9
2017-06-12T07:37:48.126Z,942.9
2017-06-12T07:38:56.214Z,942.9
2017-06-12T07:40:04.539Z,942.9
2017-06-12T07:41:12.597Z,942.9
2017-06-12T07:42:20.483Z,942.9
2017-06-12T07:43:28.581Z,942.9
2017-06-12T07:44:36.654Z,942.9
2017-06-12T07:45:44.865Z,942.9
2017-06-12T07:46:52.836Z,942.9
2017-06-12T07:48:01.070Z,942.9
2017-06-12T07:49:09.012Z,942.9
2017-06-12T07:50:17.100Z,942.9
2017-06-12T07:51:25.263Z,942.9
2017-06-12T07:52:33.271Z,942.9
2017-06-12T07:53:41.421Z,942.9
2017-06-12T07:54:49.449Z,942.9
2017-06-12T07:55:57.535Z,942.9
2017-06-12T07:57:05.745Z,942.9
2017-06-12T07:58:13.709Z,942.9
2017-06-12T07:59:21.798Z,942.9
2017-06-12T08:00:29.886Z,942.9
2017-06-12T08:01:38.091Z,942.9
2017-06-12T08:02:46.115Z,942.9
2017-06-12T08:03:54.146Z,942.9
2017-06-12T08:05:02.394Z,942.8
2017-06-12T08:06:10.325Z,942.9
2017-06-12T08:07:18.410Z,942.8
2017-06-12T08:08:26.626Z,942.8
2017-06-12T08:09:34.588Z,942.8
2017-06-12T08:10:42.725Z,942.8
2017-06-12T08:11:50.767Z,942.8
2017-06-12T08:12:58.850Z,942.9
2017-06-12T08:14:07.055Z,942.8
2017-06-12T08:15:15.040Z,942.8
2017-06-12T08:16:23.120Z,942.8
2017-06-12T08:17:31.331Z,942.8
2017-06-12T08:18:39.295Z,942.8
2017-06-12T08:19:47.437Z,942.8
2017-06-12T08:20:55.469Z,942.8
2017-06-12T08:22:03.688Z,942.8
2017-06-12T08:23:11.649Z,942.8
2017-06-12T08:24:19.735Z,942.8
2017-06-12T08:25:27.945Z,942.9
2017-06-12T08:26:35.915Z,942.9
2017-06-12T08:27:44.015Z,942.9
2017-06-12T08:28:52.089Z,942.8
2017-06-12T08:30:00.191Z,942.9
2017-06-12T08:31:08.385Z,942.9
2017-06-12T08:32:16.560Z,942.8
2017-06-12T08:33:24.758Z,942.8
2017-06-12T08:34:32.531Z,942.8
2017-06-12T08:35:40.618Z,942.8
2017-06-12T08:36:48.832Z,942.8
2017-06-12T08:37:56.798Z,942.8
2017-06-12T08:39:04.945Z,942.8
2017-06-12T08:40:12.978Z,942.8
2017-06-12T08:41:21.066Z,942.7
2017-06-12T08:42:29.210Z,942.7
2017-06-12T08:43:37.241Z,942.7
2017-06-12T08:44:45.329Z,942.7
2017-06-12T08:45:53.417Z,942.8
2017-06-12T08:47:01.506Z,942.8
2017-06-12T08:48:09.712Z,942.7
2017-06-12T08:49:17.919Z,942.7
2017-06-12T08:50:25.891Z,942.8
2017-06-12T08:51:33.858Z,942.7
2017-06-12T08:52:41.947Z,942.7
2017-06-12T08:53:50.094Z,942.7
2017-06-12T08:54:58.126Z,942.7
2017-06-12T08:56:06.216Z,942.7
2017-06-12T08:57:14.300Z,942.7
2017-06-12T08:58:22.386Z,942.8
2017-06-12T08:59:30.596Z,942.8
2017-06-12T09:00:38.564Z,942.8
2017-06-12T09:01:47.097Z,942.8
2017-06-12T09:02:54.741Z,942.8
2017-06-12T09:04:02.838Z,942.8
2017-06-12T09:05:11.040Z,942.8
2017-06-12T09:06:19.024Z,942.7
2017-06-12T09:07:27.097Z,942.8
2017-06-12T09:08:35.192Z,942.8
2017-06-12T09:09:43.274Z,942.8
2017-06-12T09:10:51.419Z,942.8
2017-06-12T09:11:59.456Z,942.8
2017-06-12T09:13:07.545Z,942.8
2017-06-12T09:14:15.636Z,942.8
2017-06-12T09:15:23.722Z,942.8
2017-06-12T09:16:31.928Z,942.8
2017-06-12T09:17:40.021Z,942.8
2017-06-12T09:18:47.988Z,942.8
2017-06-12T09:19:56.081Z,942.8
2017-06-12T09:21:04.287Z,942.8
2017-06-12T09:22:12.374Z,942.7
2017-06-12T09:23:20.341Z,942.7
2017-06-12T09:24:28.440Z,942.7
2017-06-12T09:25:36.519Z,942.7
2017-06-12T09:26:44.606Z,942.7
2017-06-12T09:27:53.005Z,942.7
2017-06-12T09:29:00.782Z,942.6
2017-06-12T09:30:08.870Z,942.7
2017-06-12T09:31:16.961Z,942.8
2017-06-12T09:32:25.049Z,942.8
2017-06-12T09:33:33.260Z,942.9
2017-06-12T09:34:41.225Z,942.8
2017-06-12T09:35:49.315Z,942.7
2017-06-12T09:36:57.523Z,942.7
2017-06-12T09:38:05.490Z,942.7
2017-06-12T09:39:13.637Z,942.8
2017-06-12T09:40:21.675Z,942.8
2017-06-12T09:41:29.773Z,942.8
2017-06-12T09:42:37.849Z,942.8
2017-06-12T09:43:45.950Z,942.8
2017-06-12T09:44:54.145Z,942.7
2017-06-12T09:46:02.111Z,942.7
2017-06-12T09:47:10.200Z,942.7
2017-06-12T09:48:18.289Z,942.8
2017-06-12T09:49:26.383Z,942.8
2017-06-12T09:50:34.531Z,942.8
2017-06-12T09:51:42.631Z,942.8
2017-06-12T09:52:50.772Z,942.8
2017-06-12T09:53:58.742Z,942.8
2017-06-12T09:55:06.831Z,942.7
2017-06-12T09:56:14.974Z,942.8
2017-06-12T09:57:23.006Z,942.8
2017-06-12T09:58:31.096Z,942.8
2017-06-12T09:59:39.186Z,942.9
2017-06-12T10:00:47.269Z,942.9
2017-06-12T10:01:55.624Z,942.9
2017-06-12T10:03:03.583Z,942.9
2017-06-12T10:04:11.538Z,942.8
2017-06-12T10:05:19.623Z,942.9
2017-06-12T10:06:27.713Z,942.8
2017-06-12T10:07:35.924Z,942.9
2017-06-12T10:08:44.011Z,942.8
2017-06-12T10:09:52.628Z,942.9
2017-06-12T10:11:00.067Z,942.9
2017-06-12T10:12:08.156Z,942.8
2017-06-12T10:13:16.486Z,942.8
2017-06-12T10:14:24.342Z,942.9
2017-06-12T10:15:32.575Z,942.9
2017-06-12T10:16:40.516Z,942.8
2017-06-12T10:17:48.603Z,942.8
2017-06-12T10:18:56.854Z,942.8
2017-06-12T10:20:04.781Z,942.7
2017-06-12T10:21:12.872Z,942.7
2017-06-12T10:22:20.960Z,942.7
2017-06-12T10:23:29.049Z,942.8
2017-06-12T10:24:37.258Z,942.9
2017-06-12T10:25:45.231Z,942.9
2017-06-12T10:26:53.320Z,942.9
2017-06-12T10:28:01.407Z,943.0
2017-06-12T10:29:09.495Z,943.0
2017-06-12T10:30:17.828Z,943.0
2017-06-12T10:31:25.671Z,943.0
2017-06-12T10:32:33.758Z,943.0
2017-06-12T10:33:41.850Z,942.9
2017-06-12T10:34:50.056Z,943.0
2017-06-12T10:35:58.098Z,943.0
2017-06-12T10:37:06.142Z,943.0
2017-06-12T10:38:14.209Z,943.0
2017-06-12T10:39:22.296Z,942.9
2017-06-12T10:40:30.503Z,942.9
2017-06-12T10:41:38.470Z,942.9
2017-06-12T10:42:46.559Z,942.9
2017-06-12T10:43:54.649Z,942.9
2017-06-12T10:45:02.737Z,942.9
2017-06-12T10:46:10.947Z,942.9
2017-06-12T10:47:18.935Z,942.9
2017-06-12T10:48:27.001Z,942.9
2017-06-12T10:49:35.094Z,942.9
2017-06-12T10:50:43.179Z,942.9
2017-06-12T10:51:51.815Z,943.0
2017-06-12T10:52:59.356Z,943.0
2017-06-12T10:54:07.588Z,943.0
2017-06-12T10:55:15.535Z,943.0
2017-06-12T10:56:23.744Z,942.9
2017-06-12T10:57:31.845Z,943.0
2017-06-12T10:58:39.802Z,943.0
2017-06-12T10:59:47.888Z,943.0
2017-06-12T11:00:55.978Z,943.0
2017-06-12T11:02:04.065Z,943.0
2017-06-12T11:03:12.274Z,942.9
2017-06-12T11:04:20.243Z,942.9
2017-06-12T11:05:28.330Z,942.9
2017-06-12T11:06:36.421Z,943.0
2017-06-12T11:07:44.511Z,942.9
2017-06-12T11:08:52.718Z,942.9
2017-06-12T11:10:00.686Z,942.9
2017-06-12T11:11:08.777Z,942.9
2017-06-12T11:12:17.162Z,942.9
2017-06-12T11:13:24.952Z,942.9
2017-06-12T11:14:33.272Z,942.9
2017-06-12T11:15:41.250Z,942.9
2017-06-12T11:16:49.374Z,943.0
2017-06-12T11:17:57.307Z,942.9
2017-06-12T11:19:05.451Z,942.9
2017-06-12T11:20:13.611Z,942.9
2017-06-12T11:21:21.605Z,942.8
2017-06-12T11:22:29.669Z,942.8
2017-06-12T11:23:37.757Z,942.9
2017-06-12T11:24:45.859Z,942.8
2017-06-12T11:25:53.990Z,942.9
2017-06-12T11:27:02.025Z,942.9
2017-06-12T11:28:10.234Z,942.9
2017-06-12T11:29:18.201Z,942.9
2017-06-12T11:30:26.563Z,943.0
2017-06-12T11:31:34.590Z,942.9
2017-06-12T11:32:42.554Z,942.9
2017-06-12T11:33:50.556Z,942.9
2017-06-12T11:34:58.657Z,943.0
2017-06-12T11:36:06.922Z,943.0
2017-06-12T11:37:14.950Z,942.9
2017-06-12T11:38:22.917Z,942.9
2017-06-12T11:39:31.006Z,942.9
2017-06-12T11:40:39.249Z,942.9
2017-06-12T11:41:47.181Z,943.0
2017-06-12T11:42:55.572Z,942.9
2017-06-12T11:44:03.483Z,942.9
2017-06-12T11:45:11.462Z,942.9
2017-06-12T11:46:19.540Z,942.8
2017-06-12T11:47:27.632Z,942.8
2017-06-12T11:48:35.827Z,942.8
2017-06-12T11:49:43.878Z,942.9
2017-06-12T11:50:51.903Z,942.9
2017-06-12T11:51:59.983Z,942.9
2017-06-12T11:53:08.136Z,943.0
2017-06-12T11:54:16.282Z,942.9
2017-06-12T11:55:24.251Z,942.9
2017-06-12T11:56:32.340Z,942.9
2017-06-12T11:57:40.431Z,943.0
2017-06-12T11:58:48.517Z,942.8
2017-06-12T11:59:56.806Z,942.9
2017-06-12T12:01:04.697Z,942.8
2017-06-12T12:02:12.785Z,942.8
2017-06-12T12:03:20.874Z,942.8
2017-06-12T12:04:28.963Z,942.9
2017-06-12T12:05:37.193Z,942.8
2017-06-12T12:06:45.142Z,942.8
2017-06-12T12:07:53.229Z,942.8
2017-06-12T12:09:01.323Z,942.8
2017-06-12T12:10:09.511Z,942.8
2017-06-12T12:11:17.619Z,942.8
2017-06-12T12:12:25.628Z,942.9
2017-06-12T12:13:33.675Z,942.9
2017-06-12T12:14:41.763Z,942.9
2017-06-12T12:15:49.910Z,942.8
2017-06-12T12:16:58.066Z,942.8
2017-06-12T12:18:06.111Z,942.9
2017-06-12T12:19:14.132Z,942.9
2017-06-12T12:20:22.220Z,942.9
2017-06-12T12:21:30.309Z,942.9
2017-06-12T12:22:38.519Z,942.8
2017-06-12T12:23:46.494Z,942.9
2017-06-12T12:24:54.582Z,942.9
2017-06-12T12:26:02.702Z,942.9
2017-06-12T12:27:11.311Z,942.8
2017-06-12T12:28:19.008Z,942.8
2017-06-12T12:29:27.243Z,942.8
2017-06-12T12:30:35.028Z,942.8
2017-06-12T12:31:43.172Z,942.8
2017-06-12T12:32:51.205Z,942.8
2017-06-12T12:33:59.350Z,942.8
2017-06-12T12:35:07.385Z,942.8
2017-06-12T12:36:15.473Z,942.8
2017-06-12T12:37:23.581Z,942.8
2017-06-12T12:38:31.834Z,942.8
2017-06-12T12:39:39.861Z,942.8
2017-06-12T12:40:47.921Z,942.8
2017-06-12T12:41:55.920Z,942.8
2017-06-12T12:43:04.101Z,942.8
2017-06-12T12:44:12.242Z,942.8
2017-06-12T12:45:20.331Z,942.8
2017-06-12T12:46:28.280Z,942.7
2017-06-12T12:47:36.489Z,942.8
2017-06-12T12:48:44.456Z,942.8
2017-06-12T12:49:52.545Z,942.7
2017-06-12T12:51:00.712Z,942.7
2017-06-12T12:52:08.720Z,942.8
2017-06-12T12:53:16.808Z,942.8
2017-06-12T12:54:24.897Z,942.9
2017-06-12T12:55:33.150Z,942.8
2017-06-12T12:56:41.196Z,942.9
2017-06-12T12:57:49.166Z,942.8
2017-06-12T12:58:57.254Z,942.8
2017-06-12T13:00:05.343Z,942.9
2017-06-12T13:01:13.444Z,942.9
2017-06-12T13:02:21.750Z,942.8
2017-06-12T13:03:29.668Z,942.9
2017-06-12T13:04:37.698Z,942.9
2017-06-12T13:05:45.791Z,942.9
2017-06-12T13:06:53.875Z,942.9
2017-06-12T13:08:02.024Z,943.0
2017-06-12T13:09:10.056Z,942.9
2017-06-12T13:10:18.144Z,942.9
2017-06-12T13:11:26.243Z,942.8
2017-06-12T13:12:34.492Z,942.9
2017-06-12T13:13:42.532Z,942.8
2017-06-12T13:14:50.501Z,942.9
2017-06-12T13:15:58.590Z,942.9
2017-06-12T13:17:06.679Z,942.9
2017-06-12T13:18:14.837Z,942.9
2017-06-12T13:19:23.040Z,942.8
2017-06-12T13:20:30.972Z,942.9
2017-06-12T13:21:39.048Z,942.8
2017-06-12T13:22:47.127Z,942.9
2017-06-12T13:23:55.214Z,942.9
2017-06-12T13:25:03.425Z,942.8
2017-06-12T13:26:11.394Z,942.9
2017-06-12T13:27:19.482Z,942.9
2017-06-12T13:28:27.572Z,942.9
2017-06-12T13:29:35.780Z,942.8
2017-06-12T13:30:43.807Z,942.9
2017-06-12T13:31:51.841Z,942.9
2017-06-12T13:32:59.928Z,943.0
2017-06-12T13:34:08.016Z,942.8
2017-06-12T13:35:16.317Z,942.8
2017-06-12T13:36:24.318Z,942.9
2017-06-12T13:37:32.287Z,942.9
2017-06-12T13:38:40.378Z,942.8
2017-06-12T13:39:48.464Z,942.7
2017-06-12T13:40:56.715Z,942.9
2017-06-12T13:42:04.700Z,942.9
2017-06-12T13:43:12.730Z,942.9
2017-06-12T13:44:20.822Z,942.8
2017-06-12T13:45:28.909Z,942.9
2017-06-12T13:46:37.018Z,942.9
2017-06-12T13:47:45.214Z,942.9
2017-06-12T13:48:53.179Z,942.9
2017-06-12T13:50:01.315Z,942.9
2017-06-12T13:51:09.666Z,942.9
2017-06-12T13:52:17.529Z,942.9
2017-06-12T13:53:25.591Z,942.9
2017-06-12T13:54:33.623Z,942.9
2017-06-12T13:55:41.714Z,942.9
2017-06-12T13:56:49.880Z,942.9
2017-06-12T13:57:57.954Z,943.0
2017-06-12T13:59:06.103Z,942.9
2017-06-12T14:00:14.073Z,942.8
2017-06-12T14:01:22.172Z,942.8
2017-06-12T14:02:30.253Z,942.9
2017-06-12T14:03:38.343Z,942.9
2017-06-12T14:04:46.554Z,943.0
2017-06-12T14:05:54.522Z,943.0
2017-06-12T14:07:02.672Z,942.9
2017-06-12T14:08:10.819Z,942.9
2017-06-12T14:09:18.832Z,942.9
2017-06-12T14:10:27.001Z,942.8
2017-06-12T14:11:34.976Z,943.0
2017-06-12T14:12:43.064Z,942.9
2017-06-12T14:13:51.156Z,942.8
2017-06-12T14:14:59.243Z,942.8
2017-06-12T14:16:07.389Z,942.8
2017-06-12T14:17:15.423Z,942.9
2017-06-12T14:18:23.519Z,942.9
2017-06-12T14:19:31.796Z,942.9
2017-06-12T14:20:39.688Z,943.0
2017-06-12T14:21:47.833Z,942.9
2017-06-12T14:22:55.984Z,942.9
2017-06-12T14:24:03.956Z,942.8
2017-06-12T14:25:12.114Z,942.8
2017-06-12T14:26:20.136Z,942.8
2017-06-12T14:27:28.281Z,942.8
2017-06-12T14:28:36.314Z,942.9
2017-06-12T14:29:44.401Z,942.9
2017-06-12T14:30:52.487Z,942.8
2017-06-12T14:32:00.586Z,942.9
2017-06-12T14:33:08.729Z,942.8
2017-06-12T14:34:16.761Z,942.8
2017-06-12T14:35:24.853Z,942.8
2017-06-12T14:36:33.093Z,942.8